createdAt,value
2023-09-10T00:00:07.571Z,4.65
2023-09-10T00:01:09.886Z,4.63
2023-09-10T00:02:12.285Z,5.32
2023-09-10T00:03:15.280Z,4.85
2023-09-10T00:04:17.289Z,4.57
2023-09-10T00:05:19.206Z,4.50
2023-09-10T00:06:20.984Z,4.82
2023-09-10T00:07:23.143Z,4.50
2023-09-10T00:08:24.980Z,5.18
2023-09-10T00:09:26.780Z,4.43
2023-09-10T00:10:29.039Z,4.28
2023-09-10T00:11:30.996Z,4.38
2023-09-10T00:12:33.068Z,3.95
2023-09-10T00:13:36.137Z,4.80
2023-09-10T00:14:37.957Z,4.55
2023-09-10T00:15:40.547Z,4.63
2023-09-10T00:16:43.409Z,4.50
2023-09-10T00:17:45.427Z,3.78
2023-09-10T00:18:47.328Z,4.50
2023-09-10T00:19:49.209Z,4.07
2023-09-10T00:20:54.506Z,4.38
2023-09-10T00:21:56.400Z,4.55
2023-09-10T00:22:58.562Z,4.28
2023-09-10T00:24:00.486Z,4.82
2023-09-10T00:25:02.394Z,4.53
2023-09-10T00:26:04.416Z,5.72
2023-09-10T00:27:06.627Z,4.18
2023-09-10T00:28:08.628Z,4.38
2023-09-10T00:29:10.471Z,4.47
2023-09-10T00:30:12.962Z,4.60
2023-09-10T00:31:15.051Z,4.35
2023-09-10T00:32:17.019Z,4.45
2023-09-10T00:33:19.292Z,4.18
2023-09-10T00:34:21.281Z,3.97
2023-09-10T00:35:23.297Z,4.70
2023-09-10T00:36:25.161Z,4.45
2023-09-10T00:37:27.187Z,4.20
2023-09-10T00:38:29.163Z,4.88
2023-09-10T00:39:31.055Z,4.40
2023-09-10T00:42:00.088Z,4.65
2023-09-10T00:43:02.593Z,4.30
2023-09-10T00:44:05.015Z,4.50
2023-09-10T00:45:08.977Z,4.68
2023-09-10T00:47:12.981Z,4.10
2023-09-10T00:48:15.035Z,4.65
2023-09-10T00:49:16.966Z,4.53
2023-09-10T00:50:19.151Z,4.82
2023-09-10T00:51:21.602Z,4.50
2023-09-10T00:52:24.423Z,4.57
2023-09-10T00:53:27.244Z,4.85
2023-09-10T00:54:33.364Z,4.93
2023-09-10T00:55:36.301Z,3.88
2023-09-10T00:56:38.584Z,4.38
2023-09-10T00:57:40.963Z,4.40
2023-09-10T00:58:43.554Z,4.57
2023-09-10T00:59:45.956Z,4.65
2023-09-10T01:00:48.929Z,4.85
2023-09-10T01:01:51.399Z,4.57
2023-09-10T01:02:53.750Z,4.15
2023-09-10T01:03:56.054Z,4.90
2023-09-10T01:04:57.905Z,5.10
2023-09-10T01:06:00.451Z,4.45
2023-09-10T01:07:03.949Z,4.93
2023-09-10T01:08:06.473Z,4.60
2023-09-10T01:09:09.094Z,4.15
2023-09-10T01:10:11.420Z,4.25
2023-09-10T01:11:49.829Z,4.97
2023-09-10T01:13:24.232Z,4.80
2023-09-10T01:14:42.370Z,4.43
2023-09-10T01:15:59.105Z,4.60
2023-09-10T01:17:09.338Z,5.13
2023-09-10T01:18:22.154Z,4.78
2023-09-10T01:19:51.532Z,4.43
2023-09-10T01:21:02.151Z,4.15
2023-09-10T01:22:15.199Z,5.18
2023-09-10T01:23:27.366Z,4.40
2023-09-10T01:25:04.621Z,4.90
2023-09-10T01:26:06.629Z,5.05
2023-09-10T01:27:08.442Z,4.43
2023-09-10T01:28:10.278Z,4.35
2023-09-10T01:29:18.566Z,4.75
2023-09-10T01:30:20.718Z,5.00
2023-09-10T01:31:22.737Z,4.55
2023-09-10T01:32:32.802Z,4.93
2023-09-10T01:33:39.652Z,4.60
2023-09-10T01:34:50.888Z,5.13
2023-09-10T01:36:13.190Z,3.95
2023-09-10T01:37:23.989Z,4.50
2023-09-10T01:38:30.093Z,4.38
2023-09-10T01:39:38.653Z,4.70
2023-09-10T01:40:59.844Z,4.75
2023-09-10T01:42:01.928Z,4.75
2023-09-10T01:43:07.236Z,4.18
2023-09-10T01:44:09.842Z,4.40
2023-09-10T01:45:12.373Z,4.75
2023-09-10T01:46:15.435Z,4.88
2023-09-10T01:47:18.114Z,4.95
2023-09-10T01:48:20.492Z,4.32
2023-09-10T01:49:22.937Z,5.32
2023-09-10T01:50:24.833Z,5.38
2023-09-10T01:51:26.707Z,4.97
2023-09-10T01:52:28.525Z,4.47
2023-09-10T01:53:30.413Z,4.78
2023-09-10T01:54:32.333Z,5.65
2023-09-10T01:55:34.179Z,4.78
2023-09-10T01:56:36.009Z,4.57
2023-09-10T01:57:37.847Z,4.78
2023-09-10T01:58:39.962Z,5.13
2023-09-10T01:59:42.258Z,4.88
2023-09-10T02:00:45.234Z,5.03
2023-09-10T02:01:47.200Z,4.72
2023-09-10T02:02:49.859Z,4.35
2023-09-10T02:03:52.085Z,4.93
2023-09-10T02:04:54.149Z,4.80
2023-09-10T02:05:56.017Z,4.32
2023-09-10T02:06:57.957Z,4.60
2023-09-10T02:08:00.091Z,4.55
2023-09-10T02:09:02.025Z,4.63
2023-09-10T02:10:04.572Z,4.70
2023-09-10T02:11:06.654Z,4.40
2023-09-10T02:12:09.003Z,4.90
2023-09-10T02:13:10.999Z,4.60
2023-09-10T02:14:12.933Z,4.70
2023-09-10T02:15:15.000Z,4.53
2023-09-10T02:16:16.911Z,4.60
2023-09-10T02:17:18.811Z,4.22
2023-09-10T02:18:20.869Z,4.78
2023-09-10T02:19:23.020Z,4.47
2023-09-10T02:20:24.916Z,4.35
2023-09-10T02:21:26.760Z,4.30
2023-09-10T02:22:28.667Z,3.80
2023-09-10T02:23:30.590Z,3.88
2023-09-10T02:24:32.385Z,3.83
2023-09-10T02:25:34.442Z,4.93
2023-09-10T02:26:36.417Z,4.00
2023-09-10T02:27:38.357Z,4.25
2023-09-10T02:28:40.794Z,4.78
2023-09-10T02:29:43.269Z,4.75
2023-09-10T02:30:45.085Z,3.90
2023-09-10T02:31:46.934Z,4.25
2023-09-10T02:32:48.869Z,4.13
2023-09-10T02:33:50.901Z,4.20
2023-09-10T02:34:55.499Z,4.20
2023-09-10T02:35:57.433Z,4.28
2023-09-10T02:37:00.959Z,4.93
2023-09-10T02:38:03.878Z,4.43
2023-09-10T02:39:05.933Z,4.28
2023-09-10T02:40:09.442Z,4.22
2023-09-10T02:41:11.959Z,4.10
2023-09-10T02:42:13.898Z,4.22
2023-09-10T02:43:15.674Z,4.53
2023-09-10T02:44:17.650Z,3.80
2023-09-10T02:45:19.610Z,3.90
2023-09-10T02:46:21.504Z,3.88
2023-09-10T02:47:23.357Z,4.47
2023-09-10T02:48:25.249Z,4.20
2023-09-10T02:49:27.113Z,4.20
2023-09-10T02:50:29.168Z,4.70
2023-09-10T02:51:31.038Z,4.30
2023-09-10T02:52:32.967Z,4.28
2023-09-10T02:53:34.787Z,4.20
2023-09-10T02:54:37.671Z,4.03
2023-09-10T02:55:39.571Z,3.90
2023-09-10T02:56:41.435Z,4.45
2023-09-10T02:57:43.262Z,4.13
2023-09-10T02:58:45.185Z,4.40
2023-09-10T02:59:47.074Z,4.20
2023-09-10T03:00:48.956Z,3.80
2023-09-10T03:01:50.922Z,3.53
2023-09-10T03:02:59.218Z,4.53
2023-09-10T03:04:01.117Z,3.95
2023-09-10T03:05:03.134Z,4.28
2023-09-10T03:06:13.041Z,4.00
2023-09-10T03:07:14.994Z,3.88
2023-09-10T03:08:16.901Z,4.65
2023-09-10T03:09:19.134Z,3.72
2023-09-10T03:10:21.136Z,3.70
2023-09-10T03:11:22.978Z,3.65
2023-09-10T03:12:26.366Z,3.63
2023-09-10T03:13:28.318Z,3.72
2023-09-10T03:14:30.137Z,4.03
2023-09-10T03:15:32.064Z,3.80
2023-09-10T03:16:40.466Z,3.80
2023-09-10T03:17:42.444Z,4.03
2023-09-10T03:18:46.099Z,3.92
2023-09-10T03:19:48.299Z,4.00
2023-09-10T03:20:50.162Z,3.85
2023-09-10T03:21:52.022Z,3.55
2023-09-10T03:22:59.304Z,3.55
2023-09-10T03:24:01.286Z,3.88
2023-09-10T03:25:03.465Z,3.92
2023-09-10T03:26:05.379Z,3.80
2023-09-10T03:27:07.377Z,4.25
2023-09-10T03:28:09.198Z,3.72
2023-09-10T03:29:11.275Z,3.75
2023-09-10T03:30:13.962Z,4.05
2023-09-10T03:31:15.932Z,3.88
2023-09-10T03:32:20.441Z,4.20
2023-09-10T03:33:22.743Z,3.30
2023-09-10T03:34:24.703Z,3.45
2023-09-10T03:35:27.081Z,3.72
2023-09-10T03:36:29.597Z,3.38
2023-09-10T03:37:31.478Z,4.40
2023-09-10T03:38:33.558Z,3.22
2023-09-10T03:39:35.575Z,3.55
2023-09-10T03:40:37.528Z,3.45
2023-09-10T03:41:39.709Z,3.65
2023-09-10T03:42:41.673Z,3.78
2023-09-10T03:43:43.725Z,3.63
2023-09-10T03:44:45.630Z,3.40
2023-09-10T03:45:47.583Z,3.80
2023-09-10T03:46:49.603Z,2.90
2023-09-10T03:47:51.621Z,3.42
2023-09-10T03:48:53.539Z,3.53
2023-09-10T03:49:55.393Z,3.30
2023-09-10T03:50:57.314Z,3.08
2023-09-10T03:51:59.342Z,3.70
2023-09-10T03:53:01.359Z,3.78
2023-09-10T03:54:03.487Z,3.60
2023-09-10T03:55:05.952Z,3.67
2023-09-10T03:56:08.292Z,4.03
2023-09-10T03:57:10.343Z,3.42
2023-09-10T03:58:12.177Z,4.25
2023-09-10T03:59:14.145Z,3.45
2023-09-10T04:00:16.340Z,4.13
2023-09-10T04:01:18.290Z,3.47
2023-09-10T04:02:20.798Z,3.92
2023-09-10T04:03:23.110Z,3.85
2023-09-10T04:04:25.194Z,3.72
2023-09-10T04:05:27.332Z,3.40
2023-09-10T04:06:29.196Z,3.08
2023-09-10T04:07:31.338Z,3.67
2023-09-10T04:08:33.175Z,3.70
2023-09-10T04:09:35.031Z,3.05
2023-09-10T04:10:36.955Z,3.35
2023-09-10T04:11:38.963Z,3.78
2023-09-10T04:12:40.834Z,3.42
2023-09-10T04:13:43.013Z,3.30
2023-09-10T04:14:45.210Z,3.28
2023-09-10T04:15:47.188Z,3.13
2023-09-10T04:16:49.093Z,3.20
2023-09-10T04:17:51.043Z,3.47
2023-09-10T04:18:52.888Z,3.28
2023-09-10T04:19:54.779Z,3.33
2023-09-10T04:20:56.664Z,3.50
2023-09-10T04:21:58.646Z,3.72
2023-09-10T04:23:00.521Z,3.92
2023-09-10T04:24:02.422Z,3.30
2023-09-10T04:25:04.659Z,3.17
2023-09-10T04:26:06.899Z,3.10
2023-09-10T04:27:08.899Z,3.83
2023-09-10T04:28:10.782Z,3.33
2023-09-10T04:29:12.581Z,3.88
2023-09-10T04:30:14.587Z,3.45
2023-09-10T04:31:18.207Z,3.83
2023-09-10T04:32:20.148Z,3.38
2023-09-10T04:33:22.026Z,3.33
2023-09-10T04:34:24.072Z,3.42
2023-09-10T04:35:25.880Z,3.28
2023-09-10T04:36:27.669Z,3.28
2023-09-10T04:37:30.074Z,3.10
2023-09-10T04:38:31.954Z,3.03
2023-09-10T04:39:33.804Z,3.20
2023-09-10T04:40:35.667Z,3.22
2023-09-10T04:41:37.993Z,3.42
2023-09-10T04:42:40.002Z,3.38
2023-09-10T04:43:41.841Z,3.55
2023-09-10T04:44:43.705Z,3.47
2023-09-10T04:45:45.582Z,3.20
2023-09-10T04:46:47.710Z,2.90
2023-09-10T04:47:49.674Z,3.42
2023-09-10T04:48:51.720Z,3.00
2023-09-10T04:49:53.631Z,3.25
2023-09-10T04:50:55.515Z,3.38
2023-09-10T04:51:57.464Z,3.15
2023-09-10T04:53:02.907Z,3.53
2023-09-10T04:54:05.047Z,3.85
2023-09-10T04:55:07.331Z,3.42
2023-09-10T04:56:09.519Z,2.72
2023-09-10T04:57:11.661Z,3.50
2023-09-10T04:58:13.703Z,3.38
2023-09-10T04:59:15.693Z,2.80
2023-09-10T05:00:17.700Z,2.78
2023-09-10T05:01:19.713Z,3.17
2023-09-10T05:02:21.806Z,3.10
2023-09-10T05:03:23.912Z,3.28
2023-09-10T05:04:25.973Z,3.40
2023-09-10T05:05:27.997Z,3.25
2023-09-10T05:06:29.806Z,2.65
2023-09-10T05:07:31.705Z,3.45
2023-09-10T05:08:33.647Z,3.35
2023-09-10T05:09:35.645Z,3.25
2023-09-10T05:10:38.940Z,2.95
2023-09-10T05:11:40.944Z,3.17
2023-09-10T05:12:43.917Z,3.38
2023-09-10T05:13:45.936Z,3.10
2023-09-10T05:14:47.950Z,3.10
2023-09-10T05:15:50.266Z,3.15
2023-09-10T05:16:52.276Z,3.30
2023-09-10T05:17:54.237Z,3.10
2023-09-10T05:18:56.230Z,3.15
2023-09-10T05:19:58.304Z,3.20
2023-09-10T05:21:00.311Z,3.53
2023-09-10T05:22:02.227Z,3.67
2023-09-10T05:23:04.286Z,2.95
2023-09-10T05:24:08.567Z,3.15
2023-09-10T05:25:10.634Z,2.78
2023-09-10T05:26:12.681Z,3.08
2023-09-10T05:27:14.590Z,3.03
2023-09-10T05:28:16.825Z,3.67
2023-09-10T05:29:18.678Z,3.35
2023-09-10T05:30:20.763Z,3.22
2023-09-10T05:31:22.645Z,3.28
2023-09-10T05:32:24.763Z,2.85
2023-09-10T05:33:26.872Z,3.05
2023-09-10T05:34:28.698Z,2.92
2023-09-10T05:35:30.670Z,3.28
2023-09-10T05:36:32.763Z,3.40
2023-09-10T05:37:34.650Z,3.20
2023-09-10T05:38:36.548Z,3.40
2023-09-10T05:39:38.454Z,3.28
2023-09-10T05:40:40.458Z,2.88
2023-09-10T05:41:42.874Z,3.03
2023-09-10T05:42:45.923Z,3.22
2023-09-10T05:43:47.883Z,3.03
2023-09-10T05:44:56.181Z,3.08
2023-09-10T05:45:58.519Z,3.08
2023-09-10T05:47:00.570Z,2.35
2023-09-10T05:48:02.694Z,2.80
2023-09-10T05:49:04.635Z,3.10
2023-09-10T05:50:06.939Z,2.80
2023-09-10T05:51:08.853Z,2.80
2023-09-10T05:52:11.041Z,3.40
2023-09-10T05:53:12.995Z,2.40
2023-09-10T05:54:17.522Z,3.22
2023-09-10T05:55:19.762Z,2.85
2023-09-10T05:56:21.789Z,3.20
2023-09-10T05:57:23.948Z,3.00
2023-09-10T05:58:26.944Z,3.17
2023-09-10T05:59:28.802Z,2.60
2023-09-10T06:00:30.682Z,2.92
2023-09-10T06:01:32.540Z,2.80
2023-09-10T06:02:35.068Z,3.80
2023-09-10T06:03:37.317Z,3.50
2023-09-10T06:04:39.405Z,2.92
2023-09-10T06:05:41.326Z,2.83
2023-09-10T06:06:43.256Z,3.13
2023-09-10T06:07:45.810Z,2.65
2023-09-10T06:08:47.865Z,3.17
2023-09-10T06:09:49.633Z,2.85
2023-09-10T06:10:51.490Z,3.20
2023-09-10T06:11:53.538Z,3.03
2023-09-10T06:12:55.322Z,3.13
2023-09-10T06:13:57.310Z,3.00
2023-09-10T06:14:59.213Z,2.58
2023-09-10T06:16:01.654Z,2.88
2023-09-10T06:17:04.177Z,3.20
2023-09-10T06:18:06.249Z,2.40
2023-09-10T06:19:08.166Z,2.97
2023-09-10T06:20:10.715Z,2.83
2023-09-10T06:21:12.619Z,3.17
2023-09-10T06:22:14.438Z,2.50
2023-09-10T06:23:16.616Z,2.50
2023-09-10T06:24:18.689Z,2.40
2023-09-10T06:25:20.863Z,2.33
2023-09-10T06:26:22.963Z,3.35
2023-09-10T06:27:24.753Z,2.33
2023-09-10T06:28:27.265Z,2.58
2023-09-10T06:29:29.177Z,2.17
2023-09-10T06:30:31.092Z,3.15
2023-09-10T06:31:32.937Z,2.40
2023-09-10T06:32:34.981Z,2.83
2023-09-10T06:33:36.914Z,2.17
2023-09-10T06:34:38.781Z,2.50
2023-09-10T06:35:40.717Z,2.22
2023-09-10T06:36:42.551Z,1.77
2023-09-10T06:37:45.335Z,2.22
2023-09-10T06:38:49.255Z,2.33
2023-09-10T06:39:51.431Z,2.53
2023-09-10T06:40:53.539Z,2.38
2023-09-10T06:41:56.055Z,2.30
2023-09-10T06:42:57.856Z,2.90
2023-09-10T06:43:59.691Z,2.20
2023-09-10T06:45:01.636Z,2.53
2023-09-10T06:46:04.617Z,2.88
2023-09-10T06:47:06.806Z,2.58
2023-09-10T06:48:08.661Z,2.35
2023-09-10T06:49:10.635Z,2.58
2023-09-10T06:50:12.734Z,2.70
2023-09-10T06:51:14.678Z,3.28
2023-09-10T06:52:16.609Z,2.78
2023-09-10T06:53:18.528Z,2.30
2023-09-10T06:54:20.494Z,2.67
2023-09-10T06:55:22.436Z,3.15
2023-09-10T06:56:26.408Z,2.80
2023-09-10T06:57:30.764Z,2.85
2023-09-10T06:58:32.746Z,2.10
2023-09-10T06:59:34.937Z,2.55
2023-09-10T07:00:36.759Z,2.50
2023-09-10T07:01:41.719Z,3.00
2023-09-10T07:02:43.637Z,2.20
2023-09-10T07:03:47.139Z,2.10
2023-09-10T07:04:49.162Z,2.25
2023-09-10T07:05:51.129Z,2.65
2023-09-10T07:06:54.249Z,2.40
2023-09-10T07:07:56.194Z,2.15
2023-09-10T07:08:57.990Z,2.38
2023-09-10T07:10:00.019Z,2.28
2023-09-10T07:11:02.028Z,2.10
2023-09-10T07:12:04.476Z,2.60
2023-09-10T07:13:07.533Z,1.83
2023-09-10T07:14:09.713Z,1.75
2023-09-10T07:15:11.500Z,1.95
2023-09-10T07:16:13.664Z,2.00
2023-09-10T07:17:15.666Z,2.53
2023-09-10T07:18:17.579Z,2.42
2023-09-10T07:19:19.460Z,2.03
2023-09-10T07:20:21.377Z,2.30
2023-09-10T07:21:23.238Z,1.95
2023-09-10T07:22:25.340Z,1.73
2023-09-10T07:23:28.101Z,1.88
2023-09-10T07:24:30.066Z,1.77
2023-09-10T07:25:31.932Z,2.00
2023-09-10T07:26:40.551Z,3.08
2023-09-10T07:27:42.531Z,1.98
2023-09-10T07:28:44.408Z,1.98
2023-09-10T07:29:46.259Z,2.10
2023-09-10T07:30:48.155Z,1.90
2023-09-10T07:31:50.204Z,2.42
2023-09-10T07:32:52.114Z,1.95
2023-09-10T07:33:53.990Z,2.03
2023-09-10T07:34:56.020Z,1.85
2023-09-10T07:35:57.830Z,1.60
2023-09-10T07:36:59.672Z,2.08
2023-09-10T07:38:01.522Z,1.83
2023-09-10T07:39:03.480Z,1.80
2023-09-10T07:40:05.739Z,1.60
2023-09-10T07:41:07.640Z,1.67
2023-09-10T07:42:09.510Z,2.35
2023-09-10T07:43:11.539Z,1.70
2023-09-10T07:44:13.580Z,1.80
2023-09-10T07:45:15.738Z,1.80
2023-09-10T07:46:17.705Z,1.73
2023-09-10T07:47:19.568Z,1.65
2023-09-10T07:48:21.449Z,1.60
2023-09-10T07:49:23.305Z,1.60
2023-09-10T07:50:25.224Z,1.27
2023-09-10T07:51:27.506Z,1.67
2023-09-10T07:52:29.425Z,1.65
2023-09-10T07:53:31.293Z,1.90
2023-09-10T07:54:37.061Z,1.58
2023-09-10T07:55:38.921Z,1.70
2023-09-10T07:56:40.964Z,1.75
2023-09-10T07:57:43.060Z,1.58
2023-09-10T07:58:45.299Z,1.33
2023-09-10T07:59:47.259Z,1.33
2023-09-10T08:00:49.328Z,1.83
2023-09-10T08:01:51.186Z,1.60
2023-09-10T08:02:53.040Z,1.75
2023-09-10T08:03:55.261Z,1.52
2023-09-10T08:04:57.285Z,1.80
2023-09-10T08:06:00.508Z,1.58
2023-09-10T08:07:05.067Z,1.70
2023-09-10T08:08:07.522Z,1.50
2023-09-10T08:09:09.722Z,1.42
2023-09-10T08:10:11.628Z,1.85
2023-09-10T08:11:13.630Z,1.70
2023-09-10T08:12:15.699Z,1.40
2023-09-10T08:13:17.838Z,1.90
2023-09-10T08:14:19.726Z,1.80
2023-09-10T08:15:21.581Z,1.63
2023-09-10T08:16:23.545Z,1.50
2023-09-10T08:17:25.662Z,1.48
2023-09-10T08:18:27.730Z,1.52
2023-09-10T08:19:29.600Z,1.73
2023-09-10T08:20:31.751Z,2.10
2023-09-10T08:21:33.578Z,1.77
2023-09-10T08:22:35.547Z,1.65
2023-09-10T08:23:37.436Z,1.80
2023-09-10T08:24:39.264Z,1.50
2023-09-10T08:25:41.554Z,1.50
2023-09-10T08:26:43.357Z,1.50
2023-09-10T08:27:45.229Z,2.03
2023-09-10T08:28:47.266Z,2.45
2023-09-10T08:29:49.126Z,1.88
2023-09-10T08:30:51.293Z,2.13
2023-09-10T08:31:53.192Z,2.13
2023-09-10T08:32:55.236Z,1.90
2023-09-10T08:33:57.079Z,1.70
2023-09-10T08:34:58.885Z,1.63
2023-09-10T08:36:00.674Z,2.00
2023-09-10T08:37:07.164Z,2.10
2023-09-10T08:38:09.064Z,2.65
2023-09-10T08:39:11.144Z,2.10
2023-09-10T08:40:13.669Z,1.70
2023-09-10T08:41:27.994Z,1.67
2023-09-10T08:42:57.096Z,1.70
2023-09-10T08:43:59.874Z,1.60
2023-09-10T08:45:06.386Z,1.92
2023-09-10T08:46:11.857Z,2.08
2023-09-10T08:47:18.508Z,1.45
2023-09-10T08:48:21.299Z,1.63
2023-09-10T08:49:25.130Z,1.95
2023-09-10T08:51:31.079Z,1.50
2023-09-10T08:53:38.222Z,1.88
2023-09-10T08:54:40.132Z,1.58
2023-09-10T08:55:47.652Z,1.80
2023-09-10T08:56:50.827Z,1.67
2023-09-10T08:57:55.612Z,1.40
2023-09-10T08:58:59.024Z,1.50
2023-09-10T09:00:02.069Z,1.65
2023-09-10T09:01:07.785Z,1.83
2023-09-10T09:03:13.690Z,1.33
2023-09-10T09:04:17.078Z,1.88
2023-09-10T09:05:19.042Z,2.15
2023-09-10T09:06:21.990Z,2.08
2023-09-10T09:07:31.095Z,2.40
2023-09-10T09:08:35.145Z,1.92
2023-09-10T09:09:42.714Z,1.83
2023-09-10T09:10:45.840Z,2.00
2023-09-10T09:11:49.632Z,1.85
2023-09-10T09:13:58.258Z,1.83
2023-09-10T09:15:02.554Z,1.50
2023-09-10T09:16:06.321Z,1.75
2023-09-10T09:18:14.789Z,1.58
2023-09-10T09:19:18.824Z,1.90
2023-09-10T09:20:21.164Z,1.80
2023-09-10T09:21:25.817Z,1.83
2023-09-10T09:22:31.007Z,1.45
2023-09-10T09:23:58.669Z,2.17
2023-09-10T09:25:01.470Z,1.52
2023-09-10T09:26:03.526Z,1.92
2023-09-10T09:27:06.136Z,1.65
2023-09-10T09:28:11.579Z,1.58
2023-09-10T09:29:13.975Z,1.73
2023-09-10T09:30:16.044Z,1.40
2023-09-10T09:31:21.378Z,2.08
2023-09-10T09:32:23.736Z,1.70
2023-09-10T09:33:25.742Z,1.88
2023-09-10T09:34:27.786Z,1.60
2023-09-10T09:35:29.629Z,1.58
2023-09-10T09:36:33.896Z,1.55
2023-09-10T09:37:36.678Z,1.70
2023-09-10T09:38:46.694Z,1.65
2023-09-10T09:40:54.323Z,1.50
2023-09-10T09:41:56.297Z,1.80
2023-09-10T09:43:13.119Z,1.85
2023-09-10T09:44:20.656Z,2.03
2023-09-10T09:45:22.782Z,2.15
2023-09-10T09:46:32.860Z,1.88
2023-09-10T09:48:38.739Z,2.10
2023-09-10T09:50:49.010Z,1.88
2023-09-10T09:51:51.364Z,1.85
2023-09-10T09:52:53.938Z,2.60
2023-09-10T09:53:56.225Z,2.05
2023-09-10T09:54:58.156Z,1.80
2023-09-10T09:56:05.684Z,2.70
2023-09-10T09:57:08.195Z,3.33
2023-09-10T09:58:10.301Z,1.85
2023-09-10T09:59:12.209Z,2.20
2023-09-10T10:00:14.611Z,1.77
2023-09-10T10:01:16.489Z,1.70
2023-09-10T10:02:19.629Z,1.92
2023-09-10T10:03:21.764Z,2.30
2023-09-10T10:04:24.607Z,2.05
2023-09-10T10:05:26.508Z,2.33
2023-09-10T10:06:30.073Z,1.90
2023-09-10T10:08:49.796Z,1.83
2023-09-10T10:09:51.844Z,2.33
2023-09-10T10:10:53.851Z,1.98
2023-09-10T10:11:55.688Z,1.60
2023-09-10T10:12:58.559Z,1.77
2023-09-10T10:14:01.699Z,1.65
2023-09-10T10:15:04.226Z,1.85
2023-09-10T10:16:07.241Z,1.70
2023-09-10T10:17:09.833Z,1.65
2023-09-10T10:18:12.130Z,1.45
2023-09-10T10:19:15.359Z,1.98
2023-09-10T10:20:18.435Z,2.72
2023-09-10T10:21:22.700Z,2.58
2023-09-10T10:22:25.067Z,1.83
2023-09-10T10:23:27.974Z,1.42
2023-09-10T10:24:30.770Z,1.30
2023-09-10T10:25:33.451Z,1.60
2023-09-10T10:26:35.443Z,1.40
2023-09-10T10:27:38.098Z,1.92
2023-09-10T10:28:40.564Z,1.83
2023-09-10T10:29:42.528Z,2.13
2023-09-10T10:30:50.854Z,2.72
2023-09-10T10:32:27.465Z,1.73
2023-09-10T10:33:30.839Z,1.95
2023-09-10T10:34:39.123Z,2.53
2023-09-10T10:35:45.536Z,1.60
2023-09-10T10:37:09.258Z,2.10
2023-09-10T10:38:16.493Z,2.13
2023-09-10T10:39:28.019Z,2.25
2023-09-10T10:40:36.684Z,2.63
2023-09-10T10:41:46.021Z,2.03
2023-09-10T10:42:56.055Z,1.80
2023-09-10T10:45:10.993Z,1.35
2023-09-10T10:47:20.124Z,1.80
2023-09-10T10:48:26.915Z,1.90
2023-09-10T10:49:31.782Z,1.70
2023-09-10T10:50:37.022Z,1.88
2023-09-10T10:51:54.953Z,2.10
2023-09-10T10:53:21.317Z,1.45
2023-09-10T10:54:23.755Z,2.20
2023-09-10T10:55:27.252Z,1.70
2023-09-10T10:56:29.302Z,2.15
2023-09-10T10:57:32.253Z,1.75
2023-09-10T10:58:38.767Z,2.40
2023-09-10T10:59:41.624Z,2.30
2023-09-10T11:00:43.635Z,3.58
2023-09-10T11:02:10.179Z,2.95
2023-09-10T11:03:15.047Z,2.78
2023-09-10T11:04:20.449Z,2.55
2023-09-10T11:05:22.477Z,2.70
2023-09-10T11:06:24.507Z,1.80
2023-09-10T11:07:28.103Z,2.05
2023-09-10T11:08:44.027Z,3.20
2023-09-10T11:09:47.539Z,1.70
2023-09-10T11:10:49.389Z,1.90
2023-09-10T11:11:51.556Z,1.77
2023-09-10T11:13:11.397Z,1.55
2023-09-10T11:14:13.352Z,2.10
2023-09-10T11:15:15.268Z,1.55
2023-09-10T11:16:18.320Z,2.10
2023-09-10T11:17:25.729Z,2.00
2023-09-10T11:18:37.383Z,1.80
2023-09-10T11:19:47.123Z,1.70
2023-09-10T11:20:51.685Z,1.38
2023-09-10T11:21:56.564Z,1.63
2023-09-10T11:23:06.955Z,1.90
2023-09-10T11:24:14.991Z,1.63
2023-09-10T11:25:16.781Z,1.98
2023-09-10T11:26:18.691Z,1.60
2023-09-10T11:27:24.440Z,2.08
2023-09-10T11:28:45.962Z,2.08
2023-09-10T11:30:05.111Z,1.85
2023-09-10T11:31:47.954Z,2.35
2023-09-10T11:32:53.935Z,2.10
2023-09-10T11:34:00.332Z,2.05
2023-09-10T11:35:20.412Z,2.60
2023-09-10T11:36:25.272Z,3.10
2023-09-10T11:37:27.393Z,2.88
2023-09-10T11:38:31.493Z,3.05
2023-09-10T11:39:35.634Z,3.78
2023-09-10T11:40:38.503Z,3.95
2023-09-10T11:41:40.461Z,2.75
2023-09-10T11:42:49.887Z,2.97
2023-09-10T11:43:52.040Z,2.55
2023-09-10T11:44:56.827Z,2.55
2023-09-10T11:45:58.804Z,2.13
2023-09-10T11:47:00.752Z,1.80
2023-09-10T11:48:02.968Z,2.17
2023-09-10T11:49:05.375Z,2.20
2023-09-10T11:50:10.333Z,2.20
2023-09-10T11:51:12.244Z,1.92
2023-09-10T11:52:14.115Z,2.53
2023-09-10T11:53:16.114Z,2.40
2023-09-10T11:54:19.090Z,2.38
2023-09-10T11:55:21.380Z,2.42
2023-09-10T11:56:23.307Z,2.80
2023-09-10T11:57:25.274Z,2.38
2023-09-10T11:58:27.580Z,2.22
2023-09-10T11:59:31.951Z,2.08
2023-09-10T12:00:34.198Z,2.47
2023-09-10T12:01:36.929Z,2.55
2023-09-10T12:02:38.852Z,2.22
2023-09-10T12:03:45.798Z,2.00
2023-09-10T12:04:48.418Z,2.85
2023-09-10T12:05:50.492Z,3.35
2023-09-10T12:06:52.264Z,3.78
2023-09-10T12:07:54.174Z,2.53
2023-09-10T12:08:55.937Z,3.80
2023-09-10T12:09:57.809Z,2.40
2023-09-10T12:11:04.714Z,1.83
2023-09-10T12:12:17.777Z,2.10
2023-09-10T12:13:20.251Z,2.13
2023-09-10T12:14:24.281Z,2.90
2023-09-10T12:15:27.499Z,2.53
2023-09-10T12:16:30.000Z,2.72
2023-09-10T12:17:32.364Z,3.05
2023-09-10T12:18:35.007Z,2.28
2023-09-10T12:19:37.760Z,2.17
2023-09-10T12:20:40.276Z,1.98
2023-09-10T12:21:42.961Z,1.80
2023-09-10T12:22:44.923Z,2.38
2023-09-10T12:23:47.961Z,1.92
2023-09-10T12:24:49.941Z,2.15
2023-09-10T12:25:59.609Z,2.78
2023-09-10T12:27:01.659Z,2.33
2023-09-10T12:28:03.930Z,2.10
2023-09-10T12:29:06.537Z,2.85
2023-09-10T12:30:09.576Z,1.90
2023-09-10T12:31:12.526Z,2.60
2023-09-10T12:32:14.492Z,2.60
2023-09-10T12:33:16.572Z,2.40
2023-09-10T12:34:18.675Z,2.42
2023-09-10T12:35:21.856Z,1.80
2023-09-10T12:36:24.852Z,2.13
2023-09-10T12:37:26.777Z,1.85
2023-09-10T12:38:29.825Z,2.50
2023-09-10T12:39:34.700Z,2.30
2023-09-10T12:40:38.880Z,2.10
2023-09-10T12:41:41.027Z,2.17
2023-09-10T12:42:42.899Z,2.20
2023-09-10T12:43:45.496Z,1.83
2023-09-10T12:44:47.378Z,2.08
2023-09-10T12:45:51.683Z,1.98
2023-09-10T12:46:53.930Z,1.90
2023-09-10T12:47:56.341Z,1.90
2023-09-10T12:48:58.495Z,2.22
2023-09-10T12:50:00.508Z,2.10
2023-09-10T12:51:02.536Z,1.90
2023-09-10T12:52:05.058Z,2.10
2023-09-10T12:53:07.117Z,2.00
2023-09-10T12:54:09.646Z,2.30
2023-09-10T12:55:11.575Z,2.35
2023-09-10T12:56:13.459Z,2.38
2023-09-10T12:57:15.612Z,2.30
2023-09-10T12:58:18.411Z,2.42
2023-09-10T12:59:22.078Z,2.72
2023-09-10T13:00:27.648Z,2.58
2023-09-10T13:01:29.862Z,2.95
2023-09-10T13:02:33.660Z,2.92
2023-09-10T13:03:35.724Z,3.42
2023-09-10T13:04:38.239Z,2.90
2023-09-10T13:05:41.301Z,3.05
2023-09-10T13:06:45.266Z,2.92
2023-09-10T13:07:47.193Z,2.75
2023-09-10T13:08:49.136Z,2.78
2023-09-10T13:09:51.246Z,2.60
2023-09-10T13:10:53.064Z,2.42
2023-09-10T13:11:54.897Z,3.22
2023-09-10T13:12:56.670Z,2.58
2023-09-10T13:13:58.983Z,3.00
2023-09-10T13:15:00.991Z,2.78
2023-09-10T13:16:02.826Z,2.50
2023-09-10T13:17:05.324Z,2.55
2023-09-10T13:18:07.518Z,2.30
2023-09-10T13:19:09.728Z,2.50
2023-09-10T13:20:12.747Z,3.28
2023-09-10T13:21:15.254Z,3.60
2023-09-10T13:22:17.177Z,3.03
2023-09-10T13:23:20.292Z,2.92
2023-09-10T13:24:22.245Z,2.80
2023-09-10T13:25:24.055Z,2.92
2023-09-10T13:26:25.905Z,2.70
2023-09-10T13:27:30.507Z,2.00
2023-09-10T13:28:32.494Z,3.17
2023-09-10T13:29:34.457Z,2.95
2023-09-10T13:30:36.587Z,2.60
2023-09-10T13:31:38.463Z,2.60
2023-09-10T13:32:40.823Z,2.40
2023-09-10T13:33:43.072Z,2.80
2023-09-10T13:34:45.091Z,2.60
2023-09-10T13:35:46.927Z,2.70
2023-09-10T13:36:48.748Z,3.60
2023-09-10T13:37:50.645Z,2.83
2023-09-10T13:38:53.115Z,2.90
2023-09-10T13:39:56.461Z,2.92
2023-09-10T13:40:58.505Z,2.80
2023-09-10T13:42:00.517Z,2.97
2023-09-10T13:43:02.537Z,2.78
2023-09-10T13:44:04.752Z,2.92
2023-09-10T13:45:07.372Z,2.72
2023-09-10T13:46:09.455Z,2.88
2023-09-10T13:47:11.472Z,2.60
2023-09-10T13:48:13.376Z,2.50
2023-09-10T13:49:16.432Z,2.95
2023-09-10T13:50:18.331Z,2.80
2023-09-10T13:51:20.222Z,3.08
2023-09-10T13:52:22.088Z,3.08
2023-09-10T13:53:24.734Z,2.83
2023-09-10T13:54:26.674Z,2.88
2023-09-10T13:55:28.462Z,2.92
2023-09-10T13:56:32.817Z,3.20
2023-09-10T13:57:34.811Z,2.95
2023-09-10T13:58:36.673Z,3.08
2023-09-10T13:59:38.691Z,2.83
2023-09-10T14:00:40.594Z,3.10
2023-09-10T14:01:43.972Z,2.97
2023-09-10T14:03:48.311Z,3.22
2023-09-10T14:04:50.336Z,3.38
2023-09-10T14:05:52.740Z,3.25
2023-09-10T14:06:54.639Z,3.33
2023-09-10T14:07:56.553Z,3.65
2023-09-10T14:08:58.403Z,3.83
2023-09-10T14:10:00.542Z,3.42
2023-09-10T14:11:04.521Z,3.95
2023-09-10T14:12:07.143Z,4.75
2023-09-10T14:13:08.979Z,3.83
2023-09-10T14:14:10.834Z,4.45
2023-09-10T14:15:13.281Z,3.97
2023-09-10T14:16:15.941Z,4.18
2023-09-10T14:17:19.622Z,3.80
2023-09-10T14:18:21.588Z,3.70
2023-09-10T14:19:23.451Z,3.58